sensor_id;sensor_type;location;lat;lon;timestamp;pressure;altitude;pressure_sealevel;temperature;humidity
60897;BME280;46749;32.932;-117.130;2023-04-07T00:00:02;101440.03;;;14.22;55.46
60897;BME280;46749;32.932;-117.130;2023-04-07T00:02:30;101437.34;;;14.20;55.66
60897;BME280;46749;32.932;-117.130;2023-04-07T00:04:57;101439.16;;;14.21;55.44
60897;BME280;46749;32.932;-117.130;2023-04-07T00:07:23;101443.53;;;14.22;55.52
60897;BME280;46749;32.932;-117.130;2023-04-07T00:09:50;101438.31;;;14.22;55.53
60897;BME280;46749;32.932;-117.130;2023-04-07T00:12:16;101437.44;;;14.22;55.52
60897;BME280;46749;32.932;-117.130;2023-04-07T00:14:42;101430.47;;;14.22;55.50
60897;BME280;46749;32.932;-117.130;2023-04-07T00:17:08;101432.19;;;14.22;55.57
60897;BME280;46749;32.932;-117.130;2023-04-07T00:19:34;101432.19;;;14.22;55.43
60897;BME280;46749;32.932;-117.130;2023-04-07T00:22:01;101426.09;;;14.21;55.64
60897;BME280;46749;32.932;-117.130;2023-04-07T00:24:27;101419.97;;;14.21;55.48
60897;BME280;46749;32.932;-117.130;2023-04-07T00:26:53;101419.06;;;14.20;55.47
60897;BME280;46749;32.932;-117.130;2023-04-07T00:29:21;101417.38;;;14.21;55.35
60897;BME280;46749;32.932;-117.130;2023-04-07T00:31:47;101422.59;;;14.21;55.46
60897;BME280;46749;32.932;-117.130;2023-04-07T00:34:14;101410.41;;;14.21;55.31
60897;BME280;46749;32.932;-117.130;2023-04-07T00:36:40;101412.16;;;14.21;55.37
60897;BME280;46749;32.932;-117.130;2023-04-07T00:39:06;101406.91;;;14.21;55.37
60897;BME280;46749;32.932;-117.130;2023-04-07T00:41:35;101410.41;;;14.21;55.25
60897;BME280;46749;32.932;-117.130;2023-04-07T00:44:02;101411.31;;;14.22;55.46
60897;BME280;46749;32.932;-117.130;2023-04-07T00:46:28;101406.06;;;14.22;55.28
60897;BME280;46749;32.932;-117.130;2023-04-07T00:48:55;101410.41;;;14.21;55.49
60897;BME280;46749;32.932;-117.130;2023-04-07T00:51:21;101405.19;;;14.21;55.44
60897;BME280;46749;32.932;-117.130;2023-04-07T00:53:48;101408.69;;;14.22;55.17
60897;BME280;46749;32.932;-117.130;2023-04-07T00:56:14;101410.41;;;14.21;55.31
60897;BME280;46749;32.932;-117.130;2023-04-07T00:58:40;101416.53;;;14.22;55.43
60897;BME280;46749;32.932;-117.130;2023-04-07T01:01:11;101408.69;;;14.22;55.25
60897;BME280;46749;32.932;-117.130;2023-04-07T01:03:45;101411.31;;;14.22;55.17
60897;BME280;46749;32.932;-117.130;2023-04-07T01:06:17;101412.19;;;14.22;55.39
60897;BME280;46749;32.932;-117.130;2023-04-07T01:08:53;101422.63;;;14.22;55.32
60897;BME280;46749;32.932;-117.130;2023-04-07T01:13:52;101422.63;;;14.22;55.35
60897;BME280;46749;32.932;-117.130;2023-04-07T01:16:34;101416.56;;;14.23;55.27
60897;BME280;46749;32.932;-117.130;2023-04-07T01:19:13;101413.06;;;14.23;55.44
60897;BME280;46749;32.932;-117.130;2023-04-07T01:21:43;101413.94;;;14.23;55.30
60897;BME280;46749;32.932;-117.130;2023-04-07T01:24:20;101419.13;;;14.22;55.29
60897;BME280;46749;32.932;-117.130;2023-04-07T01:26:51;101413.06;;;14.23;55.43
60897;BME280;46749;32.932;-117.130;2023-04-07T01:29:40;101422.69;;;14.24;55.79
60897;BME280;46749;32.932;-117.130;2023-04-07T01:32:13;101420.03;;;14.22;55.45
60897;BME280;46749;32.932;-117.130;2023-04-07T01:34:40;101413.06;;;14.23;55.75
60897;BME280;46749;32.932;-117.130;2023-04-07T01:37:07;101416.53;;;14.22;55.82
60897;BME280;46749;32.932;-117.130;2023-04-07T01:39:35;101414.78;;;14.22;55.56
60897;BME280;46749;32.932;-117.130;2023-04-07T01:42:04;101414.78;;;14.22;55.59
60897;BME280;46749;32.932;-117.130;2023-04-07T01:44:32;101406.97;;;14.22;55.46
60897;BME280;46749;32.932;-117.130;2023-04-07T01:46:59;101412.19;;;14.22;55.55
60897;BME280;46749;32.932;-117.130;2023-04-07T01:49:26;101410.47;;;14.23;55.60
60897;BME280;46749;32.932;-117.130;2023-04-07T01:51:54;101409.56;;;14.22;55.53
60897;BME280;46749;32.932;-117.130;2023-04-07T01:54:20;101420.06;;;14.24;55.61
60897;BME280;46749;32.932;-117.130;2023-04-07T01:56:47;101413.94;;;14.23;55.50
60897;BME280;46749;32.932;-117.130;2023-04-07T01:59:13;101413.94;;;14.23;55.47
60897;BME280;46749;32.932;-117.130;2023-04-07T02:01:39;101414.84;;;14.24;55.36
60897;BME280;46749;32.932;-117.130;2023-04-07T02:04:10;101407.03;;;14.25;55.46
60897;BME280;46749;32.932;-117.130;2023-04-07T02:06:49;101402.66;;;14.24;55.20
60897;BME280;46749;32.932;-117.130;2023-04-07T02:09:19;101397.44;;;14.24;55.38
60897;BME280;46749;32.932;-117.130;2023-04-07T02:11:47;101407.03;;;14.25;55.19
60897;BME280;46749;32.932;-117.130;2023-04-07T02:14:14;101400.06;;;14.24;55.45
60897;BME280;46749;32.932;-117.130;2023-04-07T02:16:42;101406.16;;;14.25;55.44
60897;BME280;46749;32.932;-117.130;2023-04-07T02:19:10;101399.16;;;14.24;55.38
60897;BME280;46749;32.932;-117.130;2023-04-07T02:21:36;101401.81;;;14.25;55.42
60897;BME280;46749;32.932;-117.130;2023-04-07T02:24:07;101401.81;;;14.25;55.40
60897;BME280;46749;32.932;-117.130;2023-04-07T02:26:36;101401.81;;;14.25;55.27
60897;BME280;46749;32.932;-117.130;2023-04-07T02:29:03;101410.53;;;14.26;55.32
60897;BME280;46749;32.932;-117.130;2023-04-07T02:31:29;101400.06;;;14.24;55.27
60897;BME280;46749;32.932;-117.130;2023-04-07T02:33:56;101401.81;;;14.25;55.39
60897;BME280;46749;32.932;-117.130;2023-04-07T02:36:22;101412.28;;;14.25;55.07
60897;BME280;46749;32.932;-117.130;2023-04-07T02:38:49;101404.44;;;14.25;55.24
60897;BME280;46749;32.932;-117.130;2023-04-07T02:41:15;101406.19;;;14.26;55.43
60897;BME280;46749;32.932;-117.130;2023-04-07T02:43:41;101407.03;;;14.25;55.39
60897;BME280;46749;32.932;-117.130;2023-04-07T02:46:07;101407.03;;;14.25;55.36
60897;BME280;46749;32.932;-117.130;2023-04-07T02:48:34;101409.66;;;14.25;55.27
60897;BME280;46749;32.932;-117.130;2023-04-07T02:51:00;101412.28;;;14.25;55.34
60897;BME280;46749;32.932;-117.130;2023-04-07T02:53:26;101412.28;;;14.25;55.23
60897;BME280;46749;32.932;-117.130;2023-04-07T02:55:52;101407.94;;;14.26;55.27
60897;BME280;46749;32.932;-117.130;2023-04-07T02:58:19;101421.00;;;14.26;55.46
60897;BME280;46749;32.932;-117.130;2023-04-07T03:00:47;101419.25;;;14.26;55.42
60897;BME280;46749;32.932;-117.130;2023-04-07T03:03:14;101407.03;;;14.25;55.26
60897;BME280;46749;32.932;-117.130;2023-04-07T03:05:40;101410.53;;;14.26;55.33
60897;BME280;46749;32.932;-117.130;2023-04-07T03:08:07;101409.66;;;14.25;55.28
60897;BME280;46749;32.932;-117.130;2023-04-07T03:10:33;101419.25;;;14.26;55.18
60897;BME280;46749;32.932;-117.130;2023-04-07T03:12:59;101414.03;;;14.26;55.31
60897;BME280;46749;32.932;-117.130;2023-04-07T03:15:25;101411.44;;;14.26;55.17
60897;BME280;46749;32.932;-117.130;2023-04-07T03:17:51;101405.31;;;14.26;55.37
60897;BME280;46749;32.932;-117.130;2023-04-07T03:20:18;101410.53;;;14.26;55.26
60897;BME280;46749;32.932;-117.130;2023-04-07T03:22:44;101404.44;;;14.25;55.46
60897;BME280;46749;32.932;-117.130;2023-04-07T03:25:12;101413.16;;;14.26;55.52
60897;BME280;46749;32.932;-117.130;2023-04-07T03:27:38;101417.56;;;14.27;55.41
60897;BME280;46749;32.932;-117.130;2023-04-07T03:30:05;101411.44;;;14.26;55.40
60897;BME280;46749;32.932;-117.130;2023-04-07T03:32:31;101419.25;;;14.26;55.30
60897;BME280;46749;32.932;-117.130;2023-04-07T03:34:57;101418.38;;;14.26;55.27
60897;BME280;46749;32.932;-117.130;2023-04-07T03:37:24;101416.66;;;14.26;55.36
60897;BME280;46749;32.932;-117.130;2023-04-07T03:39:50;101419.25;;;14.26;55.39
60897;BME280;46749;32.932;-117.130;2023-04-07T03:42:16;101408.81;;;14.26;55.08
60897;BME280;46749;32.932;-117.130;2023-04-07T03:44:42;101412.28;;;14.25;55.52
60897;BME280;46749;32.932;-117.130;2023-04-07T03:47:09;101417.50;;;14.25;55.41
60897;BME280;46749;32.932;-117.130;2023-04-07T03:49:35;101414.03;;;14.26;55.32
60897;BME280;46749;32.932;-117.130;2023-04-07T03:52:03;101417.50;;;14.25;55.46
60897;BME280;46749;32.932;-117.130;2023-04-07T03:54:30;101413.16;;;14.26;55.42
60897;BME280;46749;32.932;-117.130;2023-04-07T03:56:56;101414.03;;;14.26;55.40
60897;BME280;46749;32.932;-117.130;2023-04-07T03:59:22;101407.03;;;14.25;55.31
60897;BME280;46749;32.932;-117.130;2023-04-07T04:01:48;101417.50;;;14.25;55.41
60897;BME280;46749;32.932;-117.130;2023-04-07T04:04:15;101422.72;;;14.25;55.44
60897;BME280;46749;32.932;-117.130;2023-04-07T04:06:41;101419.25;;;14.26;55.41
60897;BME280;46749;32.932;-117.130;2023-04-07T04:09:07;101420.09;;;14.25;55.57
60897;BME280;46749;32.932;-117.130;2023-04-07T04:11:33;101421.88;;;14.26;55.53
60897;BME280;46749;32.932;-117.130;2023-04-07T04:14:00;101423.59;;;14.26;55.45
60897;BME280;46749;32.932;-117.130;2023-04-07T04:16:26;101425.34;;;14.25;55.34
60897;BME280;46749;32.932;-117.130;2023-04-07T04:18:52;101417.50;;;14.25;55.41
60897;BME280;46749;32.932;-117.130;2023-04-07T04:21:18;101414.00;;;14.25;55.18
60897;BME280;46749;32.932;-117.130;2023-04-07T04:23:45;101427.94;;;14.25;55.51
60897;BME280;46749;32.932;-117.130;2023-04-07T04:26:11;101433.16;;;14.25;55.37
60897;BME280;46749;32.932;-117.130;2023-04-07T04:28:37;101433.16;;;14.25;55.44
60897;BME280;46749;32.932;-117.130;2023-04-07T04:31:03;101435.78;;;14.25;55.49
60897;BME280;46749;32.932;-117.130;2023-04-07T04:33:30;101433.16;;;14.25;55.43
60897;BME280;46749;32.932;-117.130;2023-04-07T04:35:56;101439.28;;;14.26;55.41
60897;BME280;46749;32.932;-117.130;2023-04-07T04:38:22;101438.41;;;14.25;55.39
60897;BME280;46749;32.932;-117.130;2023-04-07T04:40:48;101445.38;;;14.26;55.48
60897;BME280;46749;32.932;-117.130;2023-04-07T04:43:14;101451.47;;;14.25;55.45
60897;BME280;46749;32.932;-117.130;2023-04-07T04:45:40;101457.53;;;14.24;55.49
60897;BME280;46749;32.932;-117.130;2023-04-07T04:48:07;101456.69;;;14.25;55.59
60897;BME280;46749;32.932;-117.130;2023-04-07T04:50:33;101459.28;;;14.25;55.59
60897;BME280;46749;32.932;-117.130;2023-04-07T04:53:01;101453.19;;;14.25;55.25
60897;BME280;46749;32.932;-117.130;2023-04-07T04:55:27;101458.38;;;14.23;55.46
60897;BME280;46749;32.932;-117.130;2023-04-07T04:57:53;101463.63;;;14.25;55.34
60897;BME280;46749;32.932;-117.130;2023-04-07T05:00:20;101454.03;;;14.24;55.58
60897;BME280;46749;32.932;-117.130;2023-04-07T05:02:46;101467.09;;;14.24;55.54
60897;BME280;46749;32.932;-117.130;2023-04-07T05:05:12;101447.06;;;14.24;55.46
60897;BME280;46749;32.932;-117.130;2023-04-07T05:07:39;101448.84;;;14.25;55.44
60897;BME280;46749;32.932;-117.130;2023-04-07T05:10:08;101452.31;;;14.24;55.47
60897;BME280;46749;32.932;-117.130;2023-04-07T05:12:34;101454.91;;;14.24;55.47
60897;BME280;46749;32.932;-117.130;2023-04-07T05:15:01;101455.81;;;14.25;55.45
60897;BME280;46749;32.932;-117.130;2023-04-07T05:17:27;101457.53;;;14.24;55.58
60897;BME280;46749;32.932;-117.130;2023-04-07T05:19:53;101458.41;;;14.25;55.42
60897;BME280;46749;32.932;-117.130;2023-04-07T05:22:20;101462.75;;;14.24;55.51
60897;BME280;46749;32.932;-117.130;2023-04-07T05:24:46;101462.75;;;14.24;55.44
60897;BME280;46749;32.932;-117.130;2023-04-07T05:27:12;101454.03;;;14.24;55.50
60897;BME280;46749;32.932;-117.130;2023-04-07T05:29:38;101457.53;;;14.24;55.65
60897;BME280;46749;32.932;-117.130;2023-04-07T05:32:05;101455.75;;;14.23;55.41
60897;BME280;46749;32.932;-117.130;2023-04-07T05:34:31;101445.34;;;14.25;55.46
60897;BME280;46749;32.932;-117.130;2023-04-07T05:36:57;101454.03;;;14.24;55.52
60897;BME280;46749;32.932;-117.130;2023-04-07T05:39:24;101447.06;;;14.24;55.56
60897;BME280;46749;32.932;-117.130;2023-04-07T05:41:51;101450.53;;;14.23;55.64
60897;BME280;46749;32.932;-117.130;2023-04-07T05:44:17;101444.41;;;14.23;55.54
60897;BME280;46749;32.932;-117.130;2023-04-07T05:46:43;101446.19;;;14.24;55.56
60897;BME280;46749;32.932;-117.130;2023-04-07T05:49:10;101440.09;;;14.23;55.53
60897;BME280;46749;32.932;-117.130;2023-04-07T05:51:36;101434.84;;;14.23;55.51
60897;BME280;46749;32.932;-117.130;2023-04-07T05:54:02;101437.47;;;14.23;55.52
60897;BME280;46749;32.932;-117.130;2023-04-07T05:56:28;101447.06;;;14.24;55.59
60897;BME280;46749;32.932;-117.130;2023-04-07T05:58:55;101440.94;;;14.22;55.68
60897;BME280;46749;32.932;-117.130;2023-04-07T06:01:21;101435.75;;;14.24;55.57
60897;BME280;46749;32.932;-117.130;2023-04-07T06:03:47;101441.81;;;14.23;55.49
60897;BME280;46749;32.932;-117.130;2023-04-07T06:06:33;101428.75;;;14.23;55.66
60897;BME280;46749;32.932;-117.130;2023-04-07T06:09:00;101433.97;;;14.23;55.69
60897;BME280;46749;32.932;-117.130;2023-04-07T06:11:26;101427.88;;;14.22;55.58
60897;BME280;46749;32.932;-117.130;2023-04-07T06:13:52;101420.88;;;14.21;55.67
60897;BME280;46749;32.932;-117.130;2023-04-07T06:16:18;101420.03;;;14.22;55.62
60897;BME280;46749;32.932;-117.130;2023-04-07T06:18:45;101418.28;;;14.23;55.73
60897;BME280;46749;32.932;-117.130;2023-04-07T06:21:11;101417.41;;;14.22;55.55
60897;BME280;46749;32.932;-117.130;2023-04-07T06:23:37;101415.63;;;14.21;55.67
60897;BME280;46749;32.932;-117.130;2023-04-07T06:26:04;101413.06;;;14.23;55.81
60897;BME280;46749;32.932;-117.130;2023-04-07T06:28:30;101407.81;;;14.21;55.62
60897;BME280;46749;32.932;-117.130;2023-04-07T06:30:57;101405.19;;;14.21;55.48
60897;BME280;46749;32.932;-117.130;2023-04-07T06:33:23;101413.06;;;14.23;55.64
60897;BME280;46749;32.932;-117.130;2023-04-07T06:35:50;101414.78;;;14.22;55.91
60897;BME280;46749;32.932;-117.130;2023-04-07T06:38:17;101410.41;;;14.21;55.81
60897;BME280;46749;32.932;-117.130;2023-04-07T06:40:43;101409.56;;;14.22;55.63
60897;BME280;46749;32.932;-117.130;2023-04-07T06:43:09;101404.34;;;14.22;55.77
60897;BME280;46749;32.932;-117.130;2023-04-07T06:45:35;101410.41;;;14.21;55.71
60897;BME280;46749;32.932;-117.130;2023-04-07T06:48:02;101412.19;;;14.22;55.49
60897;BME280;46749;32.932;-117.130;2023-04-07T06:50:28;101405.19;;;14.21;55.77
60897;BME280;46749;32.932;-117.130;2023-04-07T06:52:54;101412.19;;;14.22;55.77
60897;BME280;46749;32.932;-117.130;2023-04-07T06:55:20;101414.78;;;14.22;55.76
60897;BME280;46749;32.932;-117.130;2023-04-07T06:57:46;101414.78;;;14.22;55.66
60897;BME280;46749;32.932;-117.130;2023-04-07T07:00:13;101406.06;;;14.22;55.90
60897;BME280;46749;32.932;-117.130;2023-04-07T07:02:39;101407.81;;;14.21;55.83
60897;BME280;46749;32.932;-117.130;2023-04-07T07:05:06;101411.31;;;14.22;55.80
60897;BME280;46749;32.932;-117.130;2023-04-07T07:07:32;101398.16;;;14.20;55.85
60897;BME280;46749;32.932;-117.130;2023-04-07T07:09:59;101403.38;;;14.20;55.77
60897;BME280;46749;32.932;-117.130;2023-04-07T07:12:25;101398.25;;;14.22;55.79
60897;BME280;46749;32.932;-117.130;2023-04-07T07:14:51;101399.09;;;14.21;56.01
60897;BME280;46749;32.932;-117.130;2023-04-07T07:17:17;101388.63;;;14.21;55.71
60897;BME280;46749;32.932;-117.130;2023-04-07T07:19:43;101386.91;;;14.21;55.81
60897;BME280;46749;32.932;-117.130;2023-04-07T07:22:10;101382.50;;;14.20;55.90
60897;BME280;46749;32.932;-117.130;2023-04-07T07:24:36;101387.72;;;14.20;55.84
60897;BME280;46749;32.932;-117.130;2023-04-07T07:27:02;101394.66;;;14.20;55.95
60897;BME280;46749;32.932;-117.130;2023-04-07T07:29:28;101399.97;;;14.21;55.92
60897;BME280;46749;32.932;-117.130;2023-04-07T07:31:54;101397.28;;;14.20;55.64
60897;BME280;46749;32.932;-117.130;2023-04-07T07:34:21;101395.56;;;14.20;55.73
60897;BME280;46749;32.932;-117.130;2023-04-07T07:36:47;101402.50;;;14.20;55.98
60897;BME280;46749;32.932;-117.130;2023-04-07T07:39:13;101396.47;;;14.21;55.86
60897;BME280;46749;32.932;-117.130;2023-04-07T07:41:39;101405.19;;;14.21;55.66
60897;BME280;46749;32.932;-117.130;2023-04-07T07:44:06;101388.63;;;14.21;56.02
60897;BME280;46749;32.932;-117.130;2023-04-07T07:46:32;101392.94;;;14.20;55.93
60897;BME280;46749;32.932;-117.130;2023-04-07T07:48:59;101385.94;;;14.19;55.84
60897;BME280;46749;32.932;-117.130;2023-04-07T07:51:25;101388.56;;;14.19;55.88
60897;BME280;46749;32.932;-117.130;2023-04-07T07:53:52;101392.94;;;14.20;55.90
60897;BME280;46749;32.932;-117.130;2023-04-07T07:56:18;101388.56;;;14.19;55.83
60897;BME280;46749;32.932;-117.130;2023-04-07T07:58:45;101398.16;;;14.20;55.59
60897;BME280;46749;32.932;-117.130;2023-04-07T08:01:11;101391.16;;;14.19;55.79
60897;BME280;46749;32.932;-117.130;2023-04-07T08:11:50;101382.44;;;14.19;56.00
60897;BME280;46749;32.932;-117.130;2023-04-07T08:14:17;101369.38;;;14.19;55.82
60897;BME280;46749;32.932;-117.130;2023-04-07T08:16:44;101368.50;;;14.18;56.11
60897;BME280;46749;32.932;-117.130;2023-04-07T08:19:10;101367.63;;;14.18;55.94
60897;BME280;46749;32.932;-117.130;2023-04-07T08:21:37;101366.78;;;14.19;56.03
60897;BME280;46749;32.932;-117.130;2023-04-07T08:24:03;101384.19;;;14.18;55.80
60897;BME280;46749;32.932;-117.130;2023-04-07T08:26:29;101371.13;;;14.18;55.76
60897;BME280;46749;32.932;-117.130;2023-04-07T08:28:55;101367.63;;;14.18;55.81
60897;BME280;46749;32.932;-117.130;2023-04-07T08:31:23;101369.38;;;14.19;55.93
60897;BME280;46749;32.932;-117.130;2023-04-07T08:33:49;101370.22;;;14.18;56.03
60897;BME280;46749;32.932;-117.130;2023-04-07T08:36:23;101366.72;;;14.17;56.03
60897;BME280;46749;32.932;-117.130;2023-04-07T08:38:49;101363.28;;;14.18;55.98
60897;BME280;46749;32.932;-117.130;2023-04-07T08:41:26;101365.88;;;14.18;55.94
60897;BME280;46749;32.932;-117.130;2023-04-07T08:43:56;101354.56;;;14.18;55.89
60897;BME280;46749;32.932;-117.130;2023-04-07T08:46:24;101357.16;;;14.18;55.90
60897;BME280;46749;32.932;-117.130;2023-04-07T08:48:51;101359.78;;;14.18;56.18
60897;BME280;46749;32.932;-117.130;2023-04-07T08:51:37;101366.72;;;14.17;56.12
60897;BME280;46749;32.932;-117.130;2023-04-07T08:54:12;101365.88;;;14.18;56.13
60897;BME280;46749;32.932;-117.130;2023-04-07T08:56:39;101361.50;;;14.17;55.85
60897;BME280;46749;32.932;-117.130;2023-04-07T08:59:07;101367.63;;;14.18;56.09
60897;BME280;46749;32.932;-117.130;2023-04-07T09:01:34;101357.16;;;14.18;56.09
60897;BME280;46749;32.932;-117.130;2023-04-07T09:04:02;101364.13;;;14.17;55.97
60897;BME280;46749;32.932;-117.130;2023-04-07T09:06:30;101361.50;;;14.17;56.05
60897;BME280;46749;32.932;-117.130;2023-04-07T09:08:57;101361.50;;;14.17;56.15
60897;BME280;46749;32.932;-117.130;2023-04-07T09:11:25;101382.41;;;14.17;56.05
60897;BME280;46749;32.932;-117.130;2023-04-07T09:13:51;101361.50;;;14.17;56.17
60897;BME280;46749;32.932;-117.130;2023-04-07T09:16:17;101356.28;;;14.17;56.24
60897;BME280;46749;32.932;-117.130;2023-04-07T09:18:44;101351.06;;;14.17;56.10
60897;BME280;46749;32.932;-117.130;2023-04-07T09:21:10;101364.13;;;14.17;56.19
60897;BME280;46749;32.932;-117.130;2023-04-07T09:23:38;101345.84;;;14.17;56.33
60897;BME280;46749;32.932;-117.130;2023-04-07T09:28:45;101341.44;;;14.16;56.14
60897;BME280;46749;32.932;-117.130;2023-04-07T09:31:12;101338.84;;;14.16;56.13
60897;BME280;46749;32.932;-117.130;2023-04-07T09:33:39;101340.59;;;14.17;56.12
60897;BME280;46749;32.932;-117.130;2023-04-07T09:36:06;101336.22;;;14.16;56.03
60897;BME280;46749;32.932;-117.130;2023-04-07T09:38:34;101326.63;;;14.15;56.21
60897;BME280;46749;32.932;-117.130;2023-04-07T09:41:08;101319.66;;;14.16;56.11
60897;BME280;46749;32.932;-117.130;2023-04-07T09:43:36;101328.41;;;14.16;56.21
60897;BME280;46749;32.932;-117.130;2023-04-07T09:46:13;101340.56;;;14.16;56.02
60897;BME280;46749;32.932;-117.130;2023-04-07T09:48:41;101340.59;;;14.17;56.00
60897;BME280;46749;32.932;-117.130;2023-04-07T09:51:13;101344.94;;;14.17;56.08
60897;BME280;46749;32.932;-117.130;2023-04-07T09:53:48;101328.41;;;14.16;56.16
60897;BME280;46749;32.932;-117.130;2023-04-07T09:56:16;101331.00;;;14.16;56.18
60897;BME280;46749;32.932;-117.130;2023-04-07T09:58:44;101351.91;;;14.16;56.12
60897;BME280;46749;32.932;-117.130;2023-04-07T10:01:13;101344.06;;;14.16;56.07
60897;BME280;46749;32.932;-117.130;2023-04-07T10:03:39;101334.50;;;14.17;56.06
60897;BME280;46749;32.932;-117.130;2023-04-07T10:06:06;101341.44;;;14.16;56.24
60897;BME280;46749;32.932;-117.130;2023-04-07T10:08:35;101327.50;;;14.16;56.09
60897;BME280;46749;32.932;-117.130;2023-04-07T10:11:02;101326.66;;;14.17;56.14
60897;BME280;46749;32.932;-117.130;2023-04-07T10:13:30;101322.28;;;14.16;56.17
60897;BME280;46749;32.932;-117.130;2023-04-07T10:15:57;101317.94;;;14.16;56.26
60897;BME280;46749;32.932;-117.130;2023-04-07T10:18:32;101318.78;;;14.15;56.09
60897;BME280;46749;32.932;-117.130;2023-04-07T10:21:01;101318.78;;;14.15;56.24
60897;BME280;46749;32.932;-117.130;2023-04-07T10:23:33;101324.06;;;14.17;56.13
60897;BME280;46749;32.932;-117.130;2023-04-07T10:26:02;101319.66;;;14.16;56.15
60897;BME280;46749;32.932;-117.130;2023-04-07T10:28:32;101317.94;;;14.16;56.13
60897;BME280;46749;32.932;-117.130;2023-04-07T10:30:59;101317.94;;;14.16;56.12
60897;BME280;46749;32.932;-117.130;2023-04-07T10:33:47;101309.19;;;14.14;56.33
60897;BME280;46749;32.932;-117.130;2023-04-07T10:36:15;101308.34;;;14.15;56.10
60897;BME280;46749;32.932;-117.130;2023-04-07T10:38:41;101309.19;;;14.14;56.16
60897;BME280;46749;32.932;-117.130;2023-04-07T10:41:32;101301.38;;;14.16;56.24
60897;BME280;46749;32.932;-117.130;2023-04-07T10:44:02;101295.28;;;14.15;56.20
60897;BME280;46749;32.932;-117.130;2023-04-07T10:49:11;101284.81;;;14.15;56.21
60897;BME280;46749;32.932;-117.130;2023-04-07T10:52:23;101285.66;;;14.14;56.29
60897;BME280;46749;32.932;-117.130;2023-04-07T11:00:39;101285.66;;;14.14;56.30
60897;BME280;46749;32.932;-117.130;2023-04-07T11:03:12;101281.25;;;14.13;56.23
60897;BME280;46749;32.932;-117.130;2023-04-07T11:05:42;101290.91;;;14.14;56.32
60897;BME280;46749;32.932;-117.130;2023-04-07T11:08:08;101288.28;;;14.14;56.41
60897;BME280;46749;32.932;-117.130;2023-04-07T11:10:34;101290.81;;;14.13;56.26
60897;BME280;46749;32.932;-117.130;2023-04-07T11:13:07;101300.44;;;14.14;56.31
60897;BME280;46749;32.932;-117.130;2023-04-07T11:15:37;101296.94;;;14.13;56.68
60897;BME280;46749;32.932;-117.130;2023-04-07T11:18:14;101307.38;;;14.13;56.37
60897;BME280;46749;32.932;-117.130;2023-04-07T11:20:55;101297.81;;;14.14;56.43
60897;BME280;46749;32.932;-117.130;2023-04-07T11:23:25;101293.50;;;14.14;56.53
60897;BME280;46749;32.932;-117.130;2023-04-07T11:26:02;101272.63;;;14.14;56.44
60897;BME280;46749;32.932;-117.130;2023-04-07T11:28:29;101270.81;;;14.13;56.53
60897;BME280;46749;32.932;-117.130;2023-04-07T11:30:56;101267.31;;;14.13;56.30
60897;BME280;46749;32.932;-117.130;2023-04-07T11:33:25;101263.81;;;14.12;56.40
60897;BME280;46749;32.932;-117.130;2023-04-07T11:35:57;101258.59;;;14.12;56.42
60897;BME280;46749;32.932;-117.130;2023-04-07T11:38:25;101255.09;;;14.12;56.50
60897;BME280;46749;32.932;-117.130;2023-04-07T11:40:53;101263.81;;;14.12;56.50
60897;BME280;46749;32.932;-117.130;2023-04-07T11:43:24;101264.69;;;14.13;56.49
60897;BME280;46749;32.932;-117.130;2023-04-07T11:46:08;101256.88;;;14.13;56.44
60897;BME280;46749;32.932;-117.130;2023-04-07T11:48:37;101259.47;;;14.13;56.49
60897;BME280;46749;32.932;-117.130;2023-04-07T11:51:05;101258.59;;;14.12;56.60
60897;BME280;46749;32.932;-117.130;2023-04-07T11:53:35;101256.81;;;14.11;56.55
60897;BME280;46749;32.932;-117.130;2023-04-07T11:56:14;101253.38;;;14.12;56.55
60897;BME280;46749;32.932;-117.130;2023-04-07T11:58:53;101249.00;;;14.11;56.58
60897;BME280;46749;32.932;-117.130;2023-04-07T12:01:21;101242.03;;;14.12;56.54
60897;BME280;46749;32.932;-117.130;2023-04-07T12:04:03;101246.38;;;14.11;56.43
60897;BME280;46749;32.932;-117.130;2023-04-07T12:06:35;101245.53;;;14.12;56.72
60897;BME280;46749;32.932;-117.130;2023-04-07T12:09:08;101243.81;;;14.13;56.46
60897;BME280;46749;32.932;-117.130;2023-04-07T12:11:35;101239.44;;;14.12;56.45
60897;BME280;46749;32.932;-117.130;2023-04-07T12:14:04;101242.94;;;14.12;56.54
60897;BME280;46749;32.932;-117.130;2023-04-07T12:16:31;101223.75;;;14.12;56.54
60897;BME280;46749;32.932;-117.130;2023-04-07T12:18:57;101231.59;;;14.12;56.63
60897;BME280;46749;32.932;-117.130;2023-04-07T12:21:23;101235.94;;;14.11;56.67
60897;BME280;46749;32.932;-117.130;2023-04-07T12:23:51;101231.56;;;14.10;56.55
60897;BME280;46749;32.932;-117.130;2023-04-07T12:26:17;101226.34;;;14.10;56.37
60897;BME280;46749;32.932;-117.130;2023-04-07T12:28:43;101223.72;;;14.10;56.49
60897;BME280;46749;32.932;-117.130;2023-04-07T12:31:09;101228.06;;;14.10;56.52
60897;BME280;46749;32.932;-117.130;2023-04-07T12:33:36;101223.72;;;14.10;56.57
60897;BME280;46749;32.932;-117.130;2023-04-07T12:36:02;101228.94;;;14.10;56.50
60897;BME280;46749;32.932;-117.130;2023-04-07T12:38:28;101225.47;;;14.11;56.56
60897;BME280;46749;32.932;-117.130;2023-04-07T12:40:55;101222.88;;;14.11;56.67
60897;BME280;46749;32.932;-117.130;2023-04-07T12:43:30;101220.25;;;14.11;56.95
60897;BME280;46749;32.932;-117.130;2023-04-07T12:45:57;101229.81;;;14.11;56.59